Time;durP1;ratioP1;P1;durP2;ratioP2;P2;SDS_P1;SDS_P2;PMS_P1;PMS_P2;Temp;Humidity;BMP_temperature;BMP_pressure;BME280_temperature;BME280_humidity;BME280_pressure;Samples;Min_cycle;Max_cycle;Signal;HPM_P1;HPM_P2
2021/10/18 00:00:59;;;;;;;5.80;4.90;;;4.10;99.90;;;;;;5055354;28;20063;-91
2021/10/18 00:03:26;;;;;;;7.03;5.32;;;4.10;99.90;;;;;;5058382;28;20089;-91
2021/10/18 00:05:53;;;;;;;10.95;5.40;;;4.00;99.90;;;;;;5047566;28;20136;-91
2021/10/18 00:08:21;;;;;;;7.40;5.28;;;3.90;99.90;;;;;;5038892;28;20049;-91
2021/10/18 00:10:48;;;;;;;6.78;5.38;;;3.80;99.90;;;;;;5039365;28;20553;-91
2021/10/18 00:13:35;;;;;;;6.88;4.40;;;3.70;99.90;;;;;;5041775;28;20049;-92
2021/10/18 00:16:02;;;;;;;6.07;5.25;;;3.70;99.90;;;;;;5039083;28;20073;-91
2021/10/18 00:18:29;;;;;;;12.30;4.63;;;3.70;99.90;;;;;;5038895;28;20045;-91
2021/10/18 00:20:56;;;;;;;6.63;4.80;;;3.60;99.90;;;;;;5038761;28;20052;-91
2021/10/18 00:23:22;;;;;;;8.38;4.53;;;3.60;99.90;;;;;;5039171;28;20144;-91
2021/10/18 00:25:52;;;;;;;11.88;5.43;;;3.50;99.90;;;;;;5038974;28;20448;-91
2021/10/18 00:28:19;;;;;;;7.80;4.78;;;3.40;99.90;;;;;;5037980;28;20459;-92
2021/10/18 00:30:47;;;;;;;6.45;4.63;;;3.20;99.90;;;;;;5038758;28;20045;-91
2021/10/18 00:33:14;;;;;;;6.28;5.05;;;3.20;99.90;;;;;;5038610;28;20052;-92
2021/10/18 00:35:40;;;;;;;7.50;4.40;;;3.20;99.90;;;;;;5038445;28;20552;-92
2021/10/18 00:38:07;;;;;;;8.18;5.05;;;3.20;99.90;;;;;;5038830;28;20485;-92
2021/10/18 00:40:34;;;;;;;5.50;4.72;;;3.10;99.90;;;;;;5038508;28;20065;-91
2021/10/18 00:43:01;;;;;;;6.50;4.60;;;3.00;99.90;;;;;;5056019;28;20473;-92
2021/10/18 00:45:28;;;;;;;6.55;4.93;;;3.00;99.90;;;;;;5038145;28;20472;-91
2021/10/18 00:47:57;;;;;;;6.90;4.40;;;3.00;99.90;;;;;;5038441;28;20104;-91
2021/10/18 00:50:24;;;;;;;6.43;5.03;;;2.90;99.90;;;;;;5038261;28;20159;-91
2021/10/18 00:52:52;;;;;;;7.43;5.28;;;2.90;99.90;;;;;;5038458;28;20048;-91
2021/10/18 00:55:19;;;;;;;7.50;5.13;;;2.90;99.90;;;;;;5055664;28;20552;-92
2021/10/18 00:57:50;;;;;;;11.52;4.57;;;2.80;99.90;;;;;;5038704;28;20523;-91
2021/10/18 01:00:17;;;;;;;6.78;4.97;;;2.70;99.90;;;;;;5055405;28;20557;-92
2021/10/18 01:02:43;;;;;;;14.82;4.55;;;2.70;99.90;;;;;;5037603;28;20131;-91
2021/10/18 01:05:12;;;;;;;8.27;5.10;;;2.70;99.90;;;;;;5037735;28;20059;-91
2021/10/18 01:07:39;;;;;;;7.13;4.85;;;2.60;99.90;;;;;;5038436;28;20052;-91
2021/10/18 01:10:06;;;;;;;6.75;4.80;;;2.60;99.90;;;;;;5055717;28;20120;-91
2021/10/18 01:12:33;;;;;;;10.35;5.32;;;2.60;99.90;;;;;;5055810;28;20059;-92
2021/10/18 01:15:00;;;;;;;9.27;5.47;;;2.60;99.90;;;;;;5037966;28;20051;-91
2021/10/18 01:17:27;;;;;;;8.52;6.35;;;2.60;99.90;;;;;;5038150;28;20107;-91
2021/10/18 01:19:54;;;;;;;9.57;5.88;;;2.60;99.90;;;;;;5057625;28;20068;-90
2021/10/18 01:22:21;;;;;;;6.90;4.90;;;2.50;99.90;;;;;;5072830;28;20131;-91
2021/10/18 01:24:48;;;;;;;6.32;5.20;;;2.40;99.90;;;;;;5055452;28;20048;-91
2021/10/18 01:27:15;;;;;;;9.10;5.70;;;2.40;99.90;;;;;;5037771;28;20391;-92
2021/10/18 01:29:41;;;;;;;10.23;6.35;;;2.40;99.90;;;;;;5037785;28;20091;-92
2021/10/18 01:32:09;;;;;;;13.18;5.63;;;2.40;99.90;;;;;;5037869;28;20048;-92
2021/10/18 01:34:36;;;;;;;10.55;5.93;;;2.40;99.90;;;;;;5037466;28;20049;-91
2021/10/18 01:37:04;;;;;;;8.45;4.97;;;2.30;99.90;;;;;;5055120;28;20140;-91
2021/10/18 01:39:33;;;;;;;6.13;4.97;;;2.20;99.90;;;;;;5054623;28;20105;-91
2021/10/18 01:42:00;;;;;;;7.57;5.10;;;2.20;99.90;;;;;;5054054;28;20056;-91
2021/10/18 01:44:27;;;;;;;7.93;4.53;;;2.20;99.90;;;;;;5037386;28;20120;-92
2021/10/18 01:46:54;;;;;;;8.93;5.50;;;2.10;99.90;;;;;;5054640;28;20048;-92
2021/10/18 01:49:21;;;;;;;6.95;4.55;;;2.00;99.90;;;;;;5037445;28;20052;-91
2021/10/18 01:51:48;;;;;;;7.68;5.00;;;1.80;99.90;;;;;;5037400;28;20136;-91
2021/10/18 01:54:15;;;;;;;8.23;4.63;;;1.80;99.90;;;;;;5037124;28;20041;-91
2021/10/18 01:56:42;;;;;;;6.47;5.13;;;1.90;99.90;;;;;;5037099;28;20382;-91
2021/10/18 01:59:09;;;;;;;8.35;5.40;;;1.90;99.90;;;;;;5037006;28;20057;-91
2021/10/18 02:01:36;;;;;;;6.60;5.82;;;2.00;99.90;;;;;;5053102;28;20492;-91
2021/10/18 02:04:03;;;;;;;10.20;5.60;;;1.90;99.90;;;;;;5037095;28;20557;-91
2021/10/18 02:06:30;;;;;;;8.60;5.57;;;1.90;99.90;;;;;;5036918;28;20135;-91
2021/10/18 02:08:57;;;;;;;6.63;5.15;;;1.90;99.90;;;;;;5054677;28;20478;-91
2021/10/18 02:11:24;;;;;;;7.30;4.88;;;1.90;99.90;;;;;;5036510;28;20049;-92
2021/10/18 02:13:51;;;;;;;8.80;6.30;;;1.90;99.90;;;;;;5036462;28;20505;-91
2021/10/18 02:16:18;;;;;;;6.70;4.55;;;1.80;99.90;;;;;;5054370;28;20136;-92
2021/10/18 02:18:45;;;;;;;7.68;4.70;;;1.80;99.90;;;;;;5036742;28;20071;-91
2021/10/18 02:21:12;;;;;;;10.25;5.95;;;1.80;99.90;;;;;;5036345;28;20045;-91
2021/10/18 02:23:39;;;;;;;8.15;5.18;;;1.90;99.90;;;;;;5036552;28;20069;-91
2021/10/18 02:26:06;;;;;;;7.75;5.35;;;1.90;99.90;;;;;;5036469;28;20565;-91
2021/10/18 02:28:32;;;;;;;6.75;5.00;;;1.80;99.90;;;;;;5035879;28;20140;-91
2021/10/18 02:30:59;;;;;;;7.72;5.20;;;1.90;99.90;;;;;;5036670;28;20095;-91
2021/10/18 02:33:26;;;;;;;8.35;4.70;;;1.80;99.90;;;;;;5036379;28;20048;-91
2021/10/18 02:35:53;;;;;;;7.85;5.05;;;1.80;99.90;;;;;;5043326;28;20072;-90
2021/10/18 02:38:20;;;;;;;8.00;5.03;;;1.90;99.90;;;;;;5060607;28;20029;-90
2021/10/18 02:40:47;;;;;;;5.50;4.80;;;1.80;99.90;;;;;;5041646;28;20063;-91
2021/10/18 02:43:14;;;;;;;8.70;5.80;;;1.80;99.90;;;;;;5036183;28;20136;-91
2021/10/18 02:45:41;;;;;;;19.27;5.63;;;1.90;99.90;;;;;;5036158;28;20132;-91
2021/10/18 02:48:08;;;;;;;7.20;5.72;;;2.00;99.90;;;;;;5036235;28;20087;-91
2021/10/18 02:50:34;;;;;;;10.95;5.95;;;2.10;99.90;;;;;;5036249;28;20180;-92
2021/10/18 02:53:01;;;;;;;12.00;6.40;;;2.10;99.90;;;;;;5036172;28;20049;-91
2021/10/18 02:55:28;;;;;;;7.93;5.97;;;2.20;99.90;;;;;;5053248;28;20055;-92
2021/10/18 02:57:55;;;;;;;9.27;6.47;;;2.20;99.90;;;;;;5036214;28;20091;-91
2021/10/18 03:00:22;;;;;;;13.13;8.43;;;2.30;99.90;;;;;;5052420;28;20063;-91
2021/10/18 03:02:48;;;;;;;11.18;7.13;;;2.40;99.90;;;;;;5053669;28;20049;-91
2021/10/18 03:05:15;;;;;;;9.88;6.47;;;2.40;99.90;;;;;;5035936;28;20055;-92
2021/10/18 03:07:43;;;;;;;8.35;6.05;;;2.40;99.90;;;;;;5053388;28;20041;-92
2021/10/18 03:10:10;;;;;;;15.35;7.30;;;2.40;99.90;;;;;;5036008;28;20053;-91
2021/10/18 03:12:37;;;;;;;9.65;6.18;;;2.40;99.90;;;;;;5036096;28;20057;-92
2021/10/18 03:15:04;;;;;;;9.95;6.28;;;2.50;99.90;;;;;;5036002;28;20041;-92
2021/10/18 03:17:31;;;;;;;9.90;5.75;;;2.50;99.90;;;;;;5036171;28;20048;-91
2021/10/18 03:19:57;;;;;;;7.20;5.43;;;2.60;99.90;;;;;;5035796;28;20053;-91
2021/10/18 03:22:24;;;;;;;8.50;5.80;;;2.60;99.90;;;;;;5036140;28;20500;-92
2021/10/18 03:24:51;;;;;;;7.13;5.63;;;2.60;99.90;;;;;;5035965;28;20387;-91
2021/10/18 03:27:18;;;;;;;12.82;6.13;;;2.60;99.90;;;;;;5053372;28;20139;-92
2021/10/18 03:29:45;;;;;;;11.90;5.88;;;2.50;99.90;;;;;;5053231;28;20045;-91
2021/10/18 03:32:12;;;;;;;10.90;7.20;;;2.60;99.90;;;;;;5035877;28;20076;-91
2021/10/18 03:34:38;;;;;;;9.05;5.72;;;2.60;99.90;;;;;;5035870;28;20041;-91
2021/10/18 03:37:05;;;;;;;9.07;6.53;;;2.70;99.90;;;;;;5053475;28;20114;-92
2021/10/18 03:39:33;;;;;;;10.02;7.00;;;2.70;99.90;;;;;;5039308;28;20100;-91
2021/10/18 03:42:00;;;;;;;10.93;6.85;;;2.70;99.90;;;;;;5056740;28;20053;-92
2021/10/18 03:44:26;;;;;;;9.13;5.70;;;2.80;99.90;;;;;;5039542;28;20131;-92
2021/10/18 03:46:53;;;;;;;16.30;7.05;;;2.80;99.90;;;;;;5039957;28;20041;-91
2021/10/18 03:49:21;;;;;;;6.90;6.07;;;2.80;99.90;;;;;;5056944;28;20055;-92
2021/10/18 03:51:48;;;;;;;15.45;6.95;;;2.80;99.90;;;;;;5039959;28;20498;-92
2021/10/18 03:54:15;;;;;;;10.48;6.88;;;2.80;99.90;;;;;;5058636;28;20056;-91
2021/10/18 03:56:41;;;;;;;18.73;7.32;;;2.90;99.90;;;;;;5064234;28;20052;-91
2021/10/18 03:59:08;;;;;;;10.18;5.90;;;2.80;99.90;;;;;;5043851;28;20059;-91
2021/10/18 04:01:35;;;;;;;9.32;6.80;;;2.80;99.90;;;;;;5039078;28;20052;-91
2021/10/18 04:04:02;;;;;;;15.80;6.10;;;2.70;99.90;;;;;;5040021;28;20048;-91
2021/10/18 04:06:29;;;;;;;7.68;5.85;;;2.70;99.90;;;;;;5056781;28;20057;-91
2021/10/18 04:08:56;;;;;;;7.57;6.05;;;2.70;99.90;;;;;;5039482;28;20045;-91
2021/10/18 04:11:23;;;;;;;7.85;6.30;;;2.80;99.90;;;;;;5039039;28;20055;-91
2021/10/18 04:13:50;;;;;;;13.00;8.07;;;2.80;99.90;;;;;;5039438;28;20486;-92
2021/10/18 04:16:17;;;;;;;13.55;7.85;;;2.80;99.90;;;;;;5038899;28;20454;-91
2021/10/18 04:18:44;;;;;;;8.77;6.55;;;2.80;99.90;;;;;;5039091;28;20080;-91
2021/10/18 04:21:10;;;;;;;17.27;6.57;;;2.90;99.90;;;;;;5039125;28;20084;-91
2021/10/18 04:23:37;;;;;;;8.57;5.85;;;2.80;99.90;;;;;;5039514;28;20051;-91
2021/10/18 04:26:04;;;;;;;13.20;5.85;;;2.80;99.90;;;;;;5039227;28;20084;-92
2021/10/18 04:28:31;;;;;;;11.75;7.28;;;2.80;99.90;;;;;;5039017;28;20076;-91
2021/10/18 04:30:58;;;;;;;8.45;6.25;;;2.80;99.90;;;;;;5039215;28;20143;-92
2021/10/18 04:33:25;;;;;;;14.30;6.43;;;2.70;99.90;;;;;;5039168;28;20075;-92
2021/10/18 04:35:51;;;;;;;9.68;6.05;;;2.70;99.90;;;;;;5038955;28;20080;-91
2021/10/18 04:38:18;;;;;;;11.23;6.05;;;2.70;99.90;;;;;;5038916;28;20482;-91
2021/10/18 04:40:45;;;;;;;10.23;6.07;;;2.70;99.90;;;;;;5056067;28;20052;-92
2021/10/18 04:43:12;;;;;;;13.88;6.25;;;2.70;99.90;;;;;;5055372;28;20055;-92
2021/10/18 04:45:39;;;;;;;12.48;6.63;;;2.60;99.90;;;;;;5038706;28;20083;-92
2021/10/18 04:48:06;;;;;;;16.83;7.68;;;2.60;99.90;;;;;;5038844;28;20053;-91
2021/10/18 04:50:33;;;;;;;13.73;6.65;;;2.60;99.90;;;;;;5038302;28;20379;-91
2021/10/18 04:52:59;;;;;;;19.55;8.15;;;2.60;99.90;;;;;;5038971;28;20065;-92
2021/10/18 04:55:26;;;;;;;14.98;7.20;;;2.60;99.90;;;;;;5038738;28;20132;-92
2021/10/18 04:57:59;;;;;;;14.63;7.30;;;2.60;99.90;;;;;;5038828;28;20053;-92
2021/10/18 05:00:27;;;;;;;10.98;6.82;;;2.70;99.90;;;;;;5038596;28;20056;-92
2021/10/18 05:02:55;;;;;;;14.20;7.65;;;2.70;99.90;;;;;;5038545;28;20055;-92
2021/10/18 05:05:23;;;;;;;13.98;8.55;;;2.80;99.90;;;;;;5038453;28;20045;-89
2021/10/18 05:08:07;;;;;;;11.95;6.25;;;2.80;99.90;;;;;;5038531;28;20099;-91
2021/10/18 05:10:36;;;;;;;11.32;6.88;;;2.80;99.90;;;;;;5049802;28;20101;-90
2021/10/18 05:13:04;;;;;;;13.07;6.35;;;2.70;99.90;;;;;;5063493;28;20033;-90
2021/10/18 05:15:32;;;;;;;16.75;5.60;;;2.70;99.90;;;;;;5038134;28;20055;-91
2021/10/18 05:18:02;;;;;;;9.25;5.03;;;2.70;99.90;;;;;;5038113;28;20055;-91
2021/10/18 05:20:31;;;;;;;8.63;5.18;;;2.60;99.90;;;;;;5038232;28;20077;-92
2021/10/18 05:22:58;;;;;;;7.13;4.85;;;2.60;99.90;;;;;;5037984;28;20084;-91
2021/10/18 05:25:27;;;;;;;12.68;5.25;;;2.60;99.90;;;;;;5037796;28;20052;-92
2021/10/18 05:27:54;;;;;;;15.00;5.30;;;2.50;99.90;;;;;;5037616;28;20055;-92
2021/10/18 05:30:24;;;;;;;8.68;4.75;;;2.50;99.90;;;;;;5037787;28;20048;-91
2021/10/18 05:32:55;;;;;;;10.90;4.53;;;2.40;99.90;;;;;;5055253;28;20144;-90
2021/10/18 05:35:23;;;;;;;8.18;4.80;;;2.40;99.90;;;;;;5054933;28;20303;-91
2021/10/18 05:37:50;;;;;;;6.50;4.43;;;2.40;99.90;;;;;;5055073;28;20124;-91
2021/10/18 05:40:19;;;;;;;6.13;4.78;;;2.30;99.90;;;;;;5037128;28;20067;-91
2021/10/18 05:42:47;;;;;;;8.55;5.55;;;2.20;99.90;;;;;;5037273;28;20055;-91
2021/10/18 05:45:14;;;;;;;7.35;5.13;;;2.10;99.90;;;;;;5054433;28;20132;-91
2021/10/18 05:47:56;;;;;;;7.32;5.30;;;1.90;99.90;;;;;;5054671;28;20132;-92
2021/10/18 05:50:25;;;;;;;16.08;5.97;;;1.90;99.90;;;;;;5054722;28;20068;-91
2021/10/18 05:52:53;;;;;;;8.55;5.55;;;2.00;99.90;;;;;;5037052;28;20390;-92
2021/10/18 05:55:21;;;;;;;10.43;6.18;;;2.00;99.90;;;;;;5054488;28;20106;-91
2021/10/18 05:57:52;;;;;;;10.25;5.38;;;2.10;99.90;;;;;;5054479;28;20052;-91
2021/10/18 06:00:20;;;;;;;9.40;5.88;;;2.10;99.90;;;;;;5054375;28;20049;-91
2021/10/18 06:02:47;;;;;;;9.13;5.32;;;2.10;99.90;;;;;;5053411;28;20065;-91
2021/10/18 06:05:16;;;;;;;6.32;5.15;;;2.10;99.90;;;;;;5054106;28;20178;-91
2021/10/18 06:07:43;;;;;;;5.57;5.03;;;2.10;99.90;;;;;;5036896;28;20499;-91
2021/10/18 06:10:11;;;;;;;30.15;21.58;;;2.10;99.90;;;;;;5036970;28;20076;-91
2021/10/18 06:12:40;;;;;;;22.80;18.58;;;2.20;99.90;;;;;;5036865;28;20049;-92
2021/10/18 06:15:07;;;;;;;17.95;13.20;;;2.20;99.90;;;;;;5036819;28;20219;-91
2021/10/18 06:17:35;;;;;;;23.45;11.88;;;2.20;99.90;;;;;;5053946;28;20551;-92
2021/10/18 06:20:03;;;;;;;32.53;18.40;;;2.10;99.90;;;;;;5036628;28;20370;-91
2021/10/18 06:22:30;;;;;;;21.00;10.13;;;2.10;99.90;;;;;;5054180;28;20470;-91
2021/10/18 06:24:57;;;;;;;10.10;6.35;;;2.10;99.90;;;;;;5036638;28;20049;-91
2021/10/18 06:27:24;;;;;;;12.95;5.15;;;2.10;99.90;;;;;;5043802;28;20033;-90
2021/10/18 06:29:51;;;;;;;13.02;6.60;;;2.10;99.90;;;;;;5076706;28;20260;-91
2021/10/18 06:32:18;;;;;;;16.23;6.18;;;2.20;99.90;;;;;;5057190;28;20140;-92
2021/10/18 06:34:45;;;;;;;10.90;9.65;;;2.20;99.90;;;;;;5053658;28;20519;-92
2021/10/18 06:37:12;;;;;;;25.48;18.98;;;2.30;99.90;;;;;;5036390;28;20045;-92
2021/10/18 06:39:39;;;;;;;17.95;11.43;;;2.20;99.90;;;;;;5035950;28;20149;-91
2021/10/18 06:42:06;;;;;;;17.60;11.13;;;2.30;99.90;;;;;;5036322;28;20465;-91
2021/10/18 06:44:32;;;;;;;27.60;20.50;;;2.40;99.90;;;;;;5053649;28;20056;-90
2021/10/18 06:47:00;;;;;;;25.70;18.35;;;2.40;99.90;;;;;;5036118;28;20490;-91
2021/10/18 06:49:27;;;;;;;9.93;7.25;;;2.40;99.90;;;;;;5036193;28;20100;-91
2021/10/18 06:51:58;;;;;;;8.27;5.93;;;2.40;99.90;;;;;;5036261;28;20481;-91
2021/10/18 06:54:25;;;;;;;5.97;5.03;;;2.40;99.90;;;;;;5035823;28;20041;-91
2021/10/18 06:56:52;;;;;;;6.35;5.50;;;2.40;99.90;;;;;;5053438;28;20092;-91
2021/10/18 06:59:19;;;;;;;13.75;7.95;;;2.40;99.90;;;;;;5035973;28;20412;-91
2021/10/18 07:01:46;;;;;;;12.75;8.65;;;2.40;99.90;;;;;;5035622;28;20048;-90
2021/10/18 07:04:16;;;;;;;15.77;10.77;;;2.40;99.90;;;;;;5036190;28;20049;-92
2021/10/18 07:06:43;;;;;;;31.05;22.63;;;2.40;99.90;;;;;;5035894;28;20505;-90
2021/10/18 07:09:10;;;;;;;28.80;22.35;;;2.30;99.90;;;;;;5052494;28;20075;-91
2021/10/18 07:11:36;;;;;;;26.70;20.65;;;2.40;99.90;;;;;;5036072;28;20084;-91
2021/10/18 07:14:03;;;;;;;31.17;20.95;;;2.50;99.90;;;;;;5035524;28;20059;-91
2021/10/18 07:16:30;;;;;;;28.40;21.10;;;2.30;99.90;;;;;;5036182;28;20107;-90
2021/10/18 07:18:57;;;;;;;30.38;18.52;;;2.30;99.90;;;;;;5053570;28;20096;-91
2021/10/18 07:21:24;;;;;;;21.33;12.48;;;2.30;99.90;;;;;;5035855;28;20116;-93
2021/10/18 07:23:52;;;;;;;20.80;11.70;;;2.40;99.90;;;;;;5036036;28;20390;-93
2021/10/18 07:26:19;;;;;;;15.90;9.10;;;2.50;99.90;;;;;;5035796;28;20315;-93
2021/10/18 07:28:46;;;;;;;25.00;11.43;;;2.60;99.90;;;;;;5036065;28;20437;-93
2021/10/18 07:31:12;;;;;;;24.17;9.55;;;2.50;99.90;;;;;;5036023;28;20080;-93
2021/10/18 07:33:40;;;;;;;21.98;9.93;;;2.50;99.90;;;;;;5035738;28;20091;-93
2021/10/18 07:36:09;;;;;;;16.20;10.02;;;2.60;99.90;;;;;;5035678;28;20139;-93
2021/10/18 07:38:39;;;;;;;21.63;11.07;;;2.60;99.90;;;;;;5035503;28;20095;-93
2021/10/18 07:41:07;;;;;;;26.92;15.93;;;2.70;99.90;;;;;;5035472;28;20103;-93
2021/10/18 07:43:33;;;;;;;27.35;14.63;;;3.10;99.90;;;;;;5035610;28;20061;-93
2021/10/18 07:46:00;;;;;;;22.92;11.35;;;3.40;99.90;;;;;;5057552;28;20048;-93
2021/10/18 07:48:27;;;;;;;33.78;10.40;;;3.90;99.90;;;;;;5051299;28;20045;-92
2021/10/18 07:50:55;;;;;;;103.50;14.30;;;4.30;99.90;;;;;;5036003;28;20052;-93
2021/10/18 07:53:22;;;;;;;56.45;10.70;;;4.80;99.90;;;;;;5035806;28;20136;-93
2021/10/18 07:55:49;;;;;;;48.72;8.05;;;5.30;99.90;;;;;;5035384;28;20128;-94
2021/10/18 07:58:21;;;;;;;28.20;7.35;;;5.90;99.90;;;;;;5036043;28;20076;-94
2021/10/18 08:00:49;;;;;;;30.85;16.98;;;6.20;99.90;;;;;;5035723;28;20045;-94
2021/10/18 08:03:16;;;;;;;11.95;5.03;;;7.00;99.90;;;;;;5035345;28;20059;-93
2021/10/18 08:05:43;;;;;;;21.85;5.20;;;7.70;99.90;;;;;;5035447;28;20557;-94
2021/10/18 08:08:11;;;;;;;26.25;4.78;;;8.40;99.90;;;;;;5035376;28;20113;-92
2021/10/18 08:10:38;;;;;;;164.15;95.25;;;9.20;99.90;;;;;;5035611;28;20489;-92
2021/10/18 08:13:05;;;;;;;39.70;21.30;;;10.60;99.90;;;;;;5035343;28;20520;-92
2021/10/18 08:15:34;;;;;;;22.00;12.68;;;11.40;99.90;;;;;;5035166;28;20110;-92
2021/10/18 08:18:01;;;;;;;16.52;6.38;;;12.50;99.90;;;;;;5035440;28;20346;-93
2021/10/18 08:20:28;;;;;;;29.05;5.10;;;12.30;99.90;;;;;;5035667;28;20080;-92
2021/10/18 08:22:56;;;;;;;12.02;3.20;;;12.70;99.90;;;;;;5035371;28;20049;-92
2021/10/18 08:25:23;;;;;;;26.20;15.43;;;13.80;99.90;;;;;;5035658;28;20512;-91
2021/10/18 08:27:50;;;;;;;51.83;25.15;;;15.30;99.90;;;;;;5038866;28;20136;-93
2021/10/18 08:30:17;;;;;;;35.95;11.80;;;15.70;98.70;;;;;;5039622;28;20080;-92
2021/10/18 08:32:44;;;;;;;21.98;10.23;;;15.60;96.60;;;;;;5038370;28;20553;-92
2021/10/18 08:35:11;;;;;;;18.05;6.47;;;14.80;98.20;;;;;;5038785;28;20060;-92
2021/10/18 08:40:29;;;;;;;48.88;13.77;;;14.20;99.90;;;;;;5061134;28;20083;-91
2021/10/18 08:43:00;;;;;;;55.90;15.57;;;15.70;99.50;;;;;;5038949;28;20053;-93
2021/10/18 08:45:28;;;;;;;48.17;14.95;;;17.00;95.60;;;;;;5038040;28;20077;-91
2021/10/18 08:47:55;;;;;;;28.30;7.55;;;17.50;93.80;;;;;;5038363;28;20151;-93
2021/10/18 08:50:23;;;;;;;15.02;4.80;;;16.70;95.40;;;;;;5038490;28;20047;-90
2021/10/18 08:52:51;;;;;;;10.63;3.70;;;18.80;92.90;;;;;;5056134;28;20482;-89
2021/10/18 08:55:18;;;;;;;21.40;7.80;;;18.40;92.60;;;;;;5055692;28;20080;-89
2021/10/18 08:57:47;;;;;;;31.30;7.63;;;18.30;90.90;;;;;;5038880;28;20131;-90
2021/10/18 09:00:48;;;;;;;23.00;5.93;;;18.90;88.80;;;;;;5038768;28;20049;-89
2021/10/18 09:03:29;;;;;;;7.50;3.28;;;19.50;86.70;;;;;;5060852;28;20025;-89
2021/10/18 09:06:11;;;;;;;9.73;3.90;;;20.20;86.20;;;;;;5049061;28;20076;-90
2021/10/18 09:08:41;;;;;;;11.15;4.13;;;19.70;86.00;;;;;;5038213;28;20516;-89
2021/10/18 09:11:09;;;;;;;20.40;6.57;;;19.60;86.40;;;;;;5038002;28;20146;-89
2021/10/18 09:13:42;;;;;;;21.67;11.10;;;20.40;82.10;;;;;;5055463;28;20118;-90
2021/10/18 09:16:11;;;;;;;17.55;5.53;;;21.40;81.30;;;;;;5038076;28;20131;-90
2021/10/18 09:18:39;;;;;;;20.38;7.55;;;21.30;80.20;;;;;;5037982;28;20076;-91
2021/10/18 09:21:06;;;;;;;19.17;6.90;;;22.10;77.10;;;;;;5037755;28;20048;-90
2021/10/18 09:23:37;;;;;;;19.35;7.07;;;22.30;76.30;;;;;;5037539;28;20482;-90
2021/10/18 09:26:09;;;;;;;10.90;4.43;;;21.20;76.00;;;;;;5055247;28;20136;-89
2021/10/18 09:28:36;;;;;;;15.63;4.43;;;22.00;76.40;;;;;;5038228;28;20053;-90
2021/10/18 09:31:03;;;;;;;14.05;4.13;;;22.40;75.30;;;;;;5037736;28;20049;-91
2021/10/18 09:33:43;;;;;;;15.65;4.40;;;22.50;75.30;;;;;;5037369;28;20048;-89
2021/10/18 09:36:17;;;;;;;11.02;3.55;;;23.40;74.50;;;;;;5055177;28;20098;-89
2021/10/18 09:38:44;;;;;;;21.42;4.28;;;25.40;69.60;;;;;;5054783;28;20051;-90
2021/10/18 09:41:11;;;;;;;13.50;4.35;;;25.20;68.50;;;;;;5037570;28;20092;-90
2021/10/18 09:43:59;;;;;;;16.95;4.78;;;25.20;70.20;;;;;;5054646;28;20045;-89
2021/10/18 09:46:39;;;;;;;20.40;4.40;;;25.10;70.20;;;;;;5037505;28;20114;-90
2021/10/18 10:54:07;;;;;;;9.93;8.93;;;23.00;70.10;;;;;;5063762;28;20144;-90
2021/10/18 10:56:46;;;;;;;8.88;7.97;;;22.60;71.00;;;;;;5044571;28;20051;-90
2021/10/18 10:59:24;;;;;;;9.07;8.20;;;22.60;73.60;;;;;;5061512;28;20100;-91
2021/10/18 11:02:11;;;;;;;9.70;8.75;;;22.70;73.20;;;;;;5067954;28;20068;-95
2021/10/18 11:04:40;;;;;;;9.65;8.65;;;23.00;74.50;;;;;;5046223;28;20053;-93
2021/10/18 11:07:32;;;;;;;9.73;8.75;;;23.10;72.40;;;;;;5044872;28;20067;-93
2021/10/18 11:10:00;;;;;;;10.38;9.27;;;22.40;73.30;;;;;;5065944;28;20052;-94
2021/10/18 11:12:41;;;;;;;12.82;9.32;;;23.10;73.80;;;;;;5225616;22;20052;-93
2021/10/18 11:15:18;;;;;;;10.13;9.13;;;23.60;73.30;;;;;;5089286;28;20059;-92
2021/10/18 11:17:50;;;;;;;10.38;9.25;;;23.90;71.40;;;;;;5086571;28;20107;-95
2021/10/18 11:20:20;;;;;;;13.13;9.68;;;24.50;70.20;;;;;;5085448;28;20048;-94
2021/10/18 11:22:56;;;;;;;10.00;9.00;;;24.10;70.00;;;;;;5085164;28;20048;-92
2021/10/18 11:25:25;;;;;;;12.75;10.13;;;24.00;71.30;;;;;;5104565;28;20080;-94
2021/10/18 11:27:54;;;;;;;10.85;9.55;;;23.80;70.70;;;;;;5085247;28;20044;-95
2021/10/18 11:30:24;;;;;;;12.13;10.77;;;23.10;73.10;;;;;;5086858;28;20050;-95
2021/10/18 11:33:02;;;;;;;11.30;9.90;;;22.90;72.70;;;;;;5088064;28;20048;-91
2021/10/18 11:35:32;;;;;;;18.27;10.82;;;23.00;72.50;;;;;;5109083;28;20091;-90
2021/10/18 11:38:10;;;;;;;12.35;10.95;;;22.70;74.80;;;;;;5101520;28;20052;-88
2021/10/18 11:40:49;;;;;;;12.98;10.88;;;22.60;74.70;;;;;;5086465;28;20072;-91
2021/10/18 11:43:19;;;;;;;13.45;11.13;;;22.40;75.20;;;;;;5082939;28;20044;-93
2021/10/18 11:45:51;;;;;;;15.43;10.90;;;22.50;74.40;;;;;;5101010;28;20117;-95
2021/10/18 11:48:25;;;;;;;13.50;10.75;;;22.70;74.30;;;;;;5082829;28;20142;-94
2021/10/18 11:50:58;;;;;;;13.27;11.32;;;22.60;74.50;;;;;;5085098;28;20044;-96
2021/10/18 11:53:27;;;;;;;12.80;10.77;;;22.80;74.20;;;;;;5087793;28;20503;-94
2021/10/18 11:56:09;;;;;;;13.02;11.27;;;22.80;74.70;;;;;;5086244;28;20567;-93
2021/10/18 11:58:41;;;;;;;12.52;11.07;;;22.40;74.60;;;;;;5101382;28;20063;-94
2021/10/18 12:01:17;;;;;;;12.88;11.20;;;21.90;75.70;;;;;;5087779;28;20111;-95
2021/10/18 12:03:44;;;;;;;13.73;11.02;;;21.10;77.60;;;;;;5086729;28;20048;-95
2021/10/18 12:06:12;;;;;;;12.57;10.00;;;20.90;79.80;;;;;;5087862;28;20044;-94
2021/10/18 12:08:43;;;;;;;16.35;11.77;;;20.70;79.90;;;;;;5088221;28;20055;-93
2021/10/18 12:11:13;;;;;;;14.90;11.52;;;20.40;81.10;;;;;;5085318;28;20048;-93
2021/10/18 12:13:41;;;;;;;14.05;11.43;;;19.80;83.10;;;;;;5090795;28;20105;-96
2021/10/18 12:16:09;;;;;;;14.82;11.48;;;18.80;85.20;;;;;;5088338;28;20048;-96
2021/10/18 12:18:59;;;;;;;13.68;11.52;;;18.30;89.20;;;;;;5093297;28;20040;-96
2021/10/18 12:21:30;;;;;;;14.68;11.63;;;17.60;90.90;;;;;;5106606;28;20068;-94
2021/10/18 12:23:59;;;;;;;13.07;11.23;;;17.20;92.10;;;;;;5092824;28;20028;-96
2021/10/18 12:26:46;;;;;;;14.93;11.82;;;16.80;93.70;;;;;;5091801;28;20066;-96
2021/10/18 12:32:06;;;;;;;13.80;11.43;;;15.90;99.90;;;;;;5129518;22;20586;-95
2021/10/18 12:34:37;;;;;;;17.23;12.43;;;15.70;99.90;;;;;;5160360;22;20056;-96
2021/10/18 12:37:12;;;;;;;15.40;11.65;;;15.50;99.90;;;;;;5066022;28;20106;-95
2021/10/18 12:39:55;;;;;;;16.92;13.00;;;15.60;99.90;;;;;;5062952;28;20044;-92
2021/10/18 12:42:26;;;;;;;20.42;14.68;;;15.40;99.90;;;;;;5063755;28;20048;-94
2021/10/18 12:45:10;;;;;;;15.73;12.43;;;15.30;99.90;;;;;;5064584;28;20124;-94
2021/10/18 12:47:47;;;;;;;15.32;12.30;;;15.20;99.90;;;;;;5065592;28;20079;-95
2021/10/18 12:50:19;;;;;;;18.08;13.20;;;15.20;99.90;;;;;;5375333;22;20049;-95
2021/10/18 12:53:00;;;;;;;15.85;12.00;;;15.30;99.90;;;;;;5060492;28;20037;-92
2021/10/18 12:58:27;;;;;;;17.30;13.52;;;15.40;99.90;;;;;;5231908;22;20079;-96
2021/10/18 13:00:55;;;;;;;16.58;13.05;;;15.40;99.90;;;;;;5066792;28;20049;-96
2021/10/18 13:03:23;;;;;;;17.05;12.80;;;15.40;99.90;;;;;;5052201;28;20108;-96
2021/10/18 13:05:55;;;;;;;20.95;13.20;;;15.30;99.90;;;;;;5232462;23;20115;-95
2021/10/18 13:08:56;;;;;;;19.10;13.75;;;14.90;99.90;;;;;;5288736;22;20049;-93
2021/10/18 13:11:28;;;;;;;17.48;12.88;;;14.70;99.90;;;;;;5071721;28;20057;-96
2021/10/18 13:13:55;;;;;;;20.55;14.57;;;14.60;99.90;;;;;;5056960;28;20484;-95
2021/10/18 13:16:23;;;;;;;18.70;13.88;;;14.60;99.90;;;;;;5038223;28;20045;-95
2021/10/18 13:18:51;;;;;;;18.05;13.20;;;14.60;99.90;;;;;;5053780;28;20032;-96
2021/10/18 13:21:30;;;;;;;18.63;13.95;;;14.50;99.90;;;;;;5463436;23;20807;-96
2021/10/18 13:23:57;;;;;;;18.85;14.20;;;14.60;99.90;;;;;;5034280;28;20039;-95
2021/10/18 13:26:50;;;;;;;20.98;14.55;;;14.50;99.90;;;;;;5214638;23;20053;-96
2021/10/18 13:29:18;;;;;;;19.13;14.52;;;14.50;99.90;;;;;;5058851;28;20052;-96
2021/10/18 13:31:45;;;;;;;19.83;14.63;;;14.30;99.90;;;;;;5055777;28;20043;-96
2021/10/18 13:34:13;;;;;;;20.60;13.88;;;14.30;99.90;;;;;;5179625;23;20062;-94
2021/10/18 13:36:40;;;;;;;26.38;17.40;;;14.20;99.90;;;;;;5054931;28;20033;-94
2021/10/18 13:39:07;;;;;;;26.35;17.95;;;14.10;99.90;;;;;;5023136;28;20053;-96
2021/10/18 13:41:54;;;;;;;23.88;15.45;;;14.10;99.90;;;;;;5035441;28;20064;-94
2021/10/18 13:44:21;;;;;;;18.02;13.45;;;14.00;99.90;;;;;;5026701;28;20046;-93
2021/10/18 13:46:48;;;;;;;19.77;14.00;;;14.00;99.90;;;;;;5034445;28;20050;-94
2021/10/18 13:57:33;;;;;;;18.33;12.27;;;13.80;99.90;;;;;;5054297;28;20060;-94
2021/10/18 14:00:01;;;;;;;19.35;13.35;;;13.70;99.90;;;;;;5054509;28;20080;-94
2021/10/18 14:02:28;;;;;;;25.85;14.35;;;13.80;99.90;;;;;;5045070;28;20053;-93
2021/10/18 14:04:56;;;;;;;20.80;12.82;;;13.80;99.90;;;;;;5048117;28;20080;-93
2021/10/18 14:07:23;;;;;;;16.92;13.00;;;13.80;99.90;;;;;;5045278;28;20056;-94
2021/10/18 14:09:50;;;;;;;18.92;13.13;;;13.90;99.90;;;;;;5055477;28;20044;-92
2021/10/18 14:14:56;;;;;;;16.33;12.75;;;14.00;99.90;;;;;;5330210;22;20054;-96
2021/10/18 14:17:23;;;;;;;16.02;12.18;;;14.10;99.90;;;;;;5049459;28;20076;-94